Time;durP1;ratioP1;P1;durP2;ratioP2;P2;SDS_P1;SDS_P2;PMS_P1;PMS_P2;Temp;Humidity;BMP_temperature;BMP_pressure;BME280_temperature;BME280_humidity;BME280_pressure;Samples;Min_cycle;Max_cycle;Signal;HPM_P1;HPM_P2
2021/12/15 00:01:53;;;;;;;12.07;10.05;;;6.10;92.50;;;;;;5091571;28;20212;-74
2021/12/15 00:04:20;;;;;;;14.77;10.88;;;6.20;92.60;;;;;;5091178;28;20608;-74
2021/12/15 00:06:48;;;;;;;17.77;11.35;;;6.20;92.70;;;;;;5091336;28;20228;-74
2021/12/15 00:09:16;;;;;;;19.20;13.38;;;6.20;92.60;;;;;;5091302;28;20209;-74
2021/12/15 00:11:45;;;;;;;18.25;11.65;;;6.20;92.60;;;;;;5091054;28;20193;-74
2021/12/15 00:14:19;;;;;;;16.92;11.35;;;6.20;92.50;;;;;;5091177;28;20198;-75
2021/12/15 00:16:48;;;;;;;14.45;11.07;;;6.20;92.40;;;;;;5089781;28;20270;-73
2021/12/15 00:19:16;;;;;;;17.55;11.77;;;6.20;92.80;;;;;;5090342;28;20197;-74
2021/12/15 00:21:43;;;;;;;17.80;12.73;;;6.30;92.40;;;;;;5091138;28;20204;-74
2021/12/15 00:24:11;;;;;;;18.35;12.77;;;6.30;92.40;;;;;;5091443;28;20601;-74
2021/12/15 00:26:39;;;;;;;18.17;12.45;;;6.30;92.40;;;;;;5090707;28;20268;-74
2021/12/15 00:29:08;;;;;;;15.57;11.60;;;6.30;92.30;;;;;;5091406;28;20193;-74
2021/12/15 00:31:37;;;;;;;16.20;12.40;;;6.30;92.30;;;;;;5090518;28;20189;-74
2021/12/15 00:34:09;;;;;;;16.77;12.45;;;6.30;92.40;;;;;;5090748;28;20190;-73
2021/12/15 00:36:37;;;;;;;13.95;10.82;;;6.30;92.30;;;;;;5090725;28;20200;-74
2021/12/15 00:39:07;;;;;;;14.82;10.45;;;6.30;92.40;;;;;;5091355;28;20228;-74
2021/12/15 00:41:34;;;;;;;15.88;10.95;;;6.30;92.40;;;;;;5091049;28;20207;-73
2021/12/15 00:44:02;;;;;;;18.15;11.13;;;6.30;92.40;;;;;;5091425;28;20560;-73
2021/12/15 00:46:31;;;;;;;19.85;12.70;;;6.30;92.40;;;;;;5091057;28;20264;-74
2021/12/15 00:48:59;;;;;;;17.55;11.48;;;6.30;92.40;;;;;;5091433;28;20229;-74
2021/12/15 00:51:27;;;;;;;17.00;11.20;;;6.30;92.50;;;;;;5090946;28;20282;-74
2021/12/15 00:53:54;;;;;;;16.33;10.65;;;6.30;92.50;;;;;;5091348;28;20215;-74
2021/12/15 00:56:22;;;;;;;19.23;12.93;;;6.30;92.60;;;;;;5090816;28;20193;-74
2021/12/15 00:58:49;;;;;;;25.00;13.15;;;6.30;92.80;;;;;;5090738;28;20201;-75
2021/12/15 01:01:17;;;;;;;17.40;12.65;;;6.30;92.90;;;;;;5090865;28;20198;-75
2021/12/15 01:03:46;;;;;;;20.05;11.75;;;6.30;92.80;;;;;;5091050;28;20200;-74
2021/12/15 01:06:18;;;;;;;17.40;13.52;;;6.30;92.60;;;;;;5090428;28;20279;-74
2021/12/15 01:08:52;;;;;;;19.35;12.38;;;6.30;92.70;;;;;;5091032;28;20284;-75
2021/12/15 01:11:28;;;;;;;16.92;11.10;;;6.30;92.80;;;;;;5090316;28;20186;-75
2021/12/15 01:19:52;;;;;;;17.63;12.05;;;6.30;92.80;;;;;;5055056;28;20208;-74
2021/12/15 01:22:28;;;;;;;16.55;11.57;;;6.20;93.10;;;;;;5091459;28;20608;-74
2021/12/15 01:25:03;;;;;;;21.77;14.90;;;6.20;93.10;;;;;;5090332;28;20190;-73
2021/12/15 01:27:30;;;;;;;26.92;13.05;;;6.10;93.20;;;;;;5090295;28;20638;-74
2021/12/15 01:29:58;;;;;;;21.17;14.75;;;6.10;93.20;;;;;;5093741;28;20276;-74
2021/12/15 01:32:26;;;;;;;22.30;13.95;;;6.00;93.20;;;;;;5094562;28;20197;-74
2021/12/15 01:34:55;;;;;;;18.58;11.43;;;6.00;93.40;;;;;;5093907;28;20190;-74
2021/12/15 01:37:23;;;;;;;22.33;12.30;;;6.00;93.70;;;;;;5093949;28;20197;-75
2021/12/15 01:39:54;;;;;;;20.27;12.00;;;6.00;93.70;;;;;;5093534;28;20200;-74
2021/12/15 01:42:23;;;;;;;20.13;12.27;;;6.00;93.70;;;;;;5094299;28;20204;-74
2021/12/15 01:47:35;;;;;;;19.35;12.10;;;5.90;93.40;;;;;;5093751;28;20232;-74
2021/12/15 01:50:06;;;;;;;23.42;12.65;;;5.80;93.70;;;;;;5093694;28;20242;-74
2021/12/15 01:52:38;;;;;;;24.67;13.73;;;5.80;93.90;;;;;;5094161;28;20648;-73
2021/12/15 01:55:10;;;;;;;20.77;12.93;;;5.80;93.90;;;;;;5093669;28;20196;-74
2021/12/15 01:57:44;;;;;;;21.63;12.93;;;5.80;94.00;;;;;;5093591;28;20205;-74
2021/12/15 02:00:16;;;;;;;21.92;12.35;;;5.80;93.90;;;;;;5091502;28;20189;-74
2021/12/15 02:02:44;;;;;;;25.10;13.10;;;5.80;93.90;;;;;;5092186;28;20201;-75
2021/12/15 02:05:13;;;;;;;22.42;12.65;;;5.80;93.90;;;;;;5091249;28;20212;-74
2021/12/15 02:07:44;;;;;;;27.45;15.60;;;5.90;93.90;;;;;;5093165;28;20217;-74
2021/12/15 02:10:12;;;;;;;25.42;14.57;;;5.90;94.00;;;;;;5091538;28;20193;-73
2021/12/15 02:12:41;;;;;;;19.38;14.32;;;5.90;93.80;;;;;;5093212;28;20193;-75
2021/12/15 02:15:13;;;;;;;25.27;12.68;;;5.90;93.80;;;;;;5093563;28;20216;-73
2021/12/15 02:17:41;;;;;;;21.45;13.15;;;5.90;93.70;;;;;;5092975;28;20231;-74
2021/12/15 02:20:14;;;;;;;25.23;13.70;;;6.00;93.70;;;;;;5093479;28;20202;-74
2021/12/15 02:22:44;;;;;;;24.30;14.63;;;6.00;93.60;;;;;;5092771;28;20186;-74
2021/12/15 02:25:14;;;;;;;29.02;14.23;;;6.00;93.50;;;;;;5092864;28;20284;-74
2021/12/15 02:27:42;;;;;;;22.90;12.30;;;6.10;93.50;;;;;;5092685;28;20225;-74
2021/12/15 02:30:28;;;;;;;23.80;13.60;;;6.10;93.30;;;;;;5093373;28;20254;-74
2021/12/15 02:33:09;;;;;;;22.35;12.25;;;6.00;93.10;;;;;;5093068;28;20225;-73
2021/12/15 02:38:31;;;;;;;23.00;14.07;;;6.00;93.30;;;;;;5092904;28;20212;-74
2021/12/15 02:41:06;;;;;;;32.75;14.77;;;6.00;93.30;;;;;;5091925;28;20193;-75
2021/12/15 02:43:35;;;;;;;25.05;15.43;;;6.00;93.40;;;;;;5092205;28;20195;-74
2021/12/15 02:46:02;;;;;;;36.58;16.88;;;6.00;93.50;;;;;;5092783;28;20193;-76
2021/12/15 02:48:30;;;;;;;31.63;15.65;;;5.90;93.50;;;;;;5092590;28;20190;-73
2021/12/15 02:50:58;;;;;;;24.95;14.88;;;5.90;93.30;;;;;;5092770;28;20197;-74
2021/12/15 02:53:27;;;;;;;27.17;16.08;;;5.90;93.80;;;;;;5092338;28;20243;-73
2021/12/15 02:55:54;;;;;;;27.15;13.55;;;5.90;93.60;;;;;;5092817;28;20189;-73
2021/12/15 02:58:22;;;;;;;24.80;14.02;;;5.90;93.70;;;;;;5092169;28;20193;-75
2021/12/15 03:00:57;;;;;;;26.50;14.93;;;6.00;93.70;;;;;;5091747;28;20626;-74
2021/12/15 03:03:55;;;;;;;30.38;15.73;;;6.00;93.60;;;;;;5091727;28;20185;-74
2021/12/15 03:06:31;;;;;;;32.55;14.52;;;5.90;93.50;;;;;;5091819;28;20225;-74
2021/12/15 03:09:14;;;;;;;28.38;13.95;;;5.80;93.90;;;;;;5090563;28;20189;-74
2021/12/15 03:17:16;;;;;;;34.60;15.60;;;5.70;94.30;;;;;;5034508;28;20188;-75
2021/12/15 03:19:44;;;;;;;25.88;14.50;;;5.70;94.00;;;;;;5091751;28;20287;-75
2021/12/15 03:22:11;;;;;;;26.13;14.82;;;5.70;94.10;;;;;;5092304;28;20216;-75
2021/12/15 03:24:40;;;;;;;29.63;14.60;;;5.80;94.30;;;;;;5092080;28;20258;-75
2021/12/15 03:27:13;;;;;;;26.13;13.52;;;5.80;94.30;;;;;;5091392;28;20229;-75
2021/12/15 03:35:21;;;;;;;26.73;13.68;;;5.90;94.00;;;;;;5060563;28;20200;-74
2021/12/15 03:37:58;;;;;;;29.10;14.80;;;5.90;93.90;;;;;;5091282;28;20197;-73
2021/12/15 03:40:36;;;;;;;27.67;14.73;;;5.90;93.80;;;;;;5091483;28;20237;-75
2021/12/15 03:43:09;;;;;;;26.15;14.25;;;5.90;93.60;;;;;;5088774;28;20571;-74
2021/12/15 03:45:40;;;;;;;29.30;15.02;;;5.90;93.50;;;;;;5091879;28;20197;-74
2021/12/15 03:48:11;;;;;;;28.45;14.10;;;5.90;93.50;;;;;;5091111;28;20221;-74
2021/12/15 03:50:39;;;;;;;31.40;15.20;;;5.90;93.40;;;;;;5091264;28;20190;-74
2021/12/15 03:53:07;;;;;;;32.80;15.45;;;5.90;93.40;;;;;;5091350;28;20533;-74
2021/12/15 03:55:41;;;;;;;33.70;16.67;;;5.90;93.50;;;;;;5091534;28;20310;-73
2021/12/15 03:58:12;;;;;;;31.55;14.45;;;5.90;92.90;;;;;;5091101;28;20193;-73
2021/12/15 04:00:43;;;;;;;29.02;15.25;;;5.90;93.10;;;;;;5091869;28;20225;-74
2021/12/15 04:03:18;;;;;;;32.53;17.33;;;5.90;93.10;;;;;;5091601;28;20719;-74
2021/12/15 04:05:45;;;;;;;29.92;15.43;;;5.90;93.10;;;;;;5091797;28;20192;-74
2021/12/15 04:08:12;;;;;;;33.00;15.73;;;5.90;93.20;;;;;;5090681;28;20240;-74
2021/12/15 04:10:41;;;;;;;34.58;16.65;;;5.90;93.50;;;;;;5091687;28;20197;-74
2021/12/15 04:13:12;;;;;;;27.10;12.85;;;5.80;93.50;;;;;;5091155;28;20596;-73
2021/12/15 04:15:46;;;;;;;24.17;15.27;;;5.80;93.40;;;;;;5091481;28;20197;-74
2021/12/15 04:18:14;;;;;;;28.00;14.23;;;5.70;93.20;;;;;;5091066;28;20585;-73
2021/12/15 04:20:42;;;;;;;29.80;15.15;;;5.60;93.60;;;;;;5091508;28;20189;-74
2021/12/15 04:23:11;;;;;;;24.33;13.10;;;5.60;93.90;;;;;;5091448;28;20189;-74
2021/12/15 04:25:42;;;;;;;25.27;14.55;;;5.60;94.10;;;;;;5089810;28;20289;-74
2021/12/15 04:28:12;;;;;;;28.30;14.38;;;5.60;94.10;;;;;;5088151;28;20224;-74
2021/12/15 04:30:43;;;;;;;30.13;16.05;;;5.60;94.00;;;;;;5089328;28;20663;-74
2021/12/15 04:33:14;;;;;;;26.63;14.25;;;5.70;94.00;;;;;;5088914;28;20251;-74
2021/12/15 04:35:43;;;;;;;26.30;11.63;;;5.60;93.90;;;;;;5089088;28;20243;-74
2021/12/15 04:38:13;;;;;;;24.92;13.75;;;5.70;94.00;;;;;;5088649;28;20225;-75
2021/12/15 04:40:43;;;;;;;28.88;13.68;;;5.70;93.60;;;;;;5088524;28;20204;-74
2021/12/15 04:43:11;;;;;;;23.92;12.55;;;5.70;93.60;;;;;;5088743;28;20197;-74
2021/12/15 04:45:39;;;;;;;27.35;14.05;;;5.70;93.70;;;;;;5090851;28;20233;-74
2021/12/15 04:48:10;;;;;;;25.42;12.82;;;5.70;93.70;;;;;;5090982;28;20555;-73
2021/12/15 04:50:38;;;;;;;28.05;13.07;;;5.80;93.70;;;;;;5090980;28;20196;-74
2021/12/15 04:53:07;;;;;;;28.77;12.98;;;5.80;93.60;;;;;;5090706;28;20197;-75
2021/12/15 04:55:39;;;;;;;21.40;12.18;;;5.80;93.50;;;;;;5091346;28;20197;-74
2021/12/15 04:58:11;;;;;;;24.55;12.60;;;5.90;93.50;;;;;;5090267;28;20201;-74
2021/12/15 05:00:47;;;;;;;26.75;15.68;;;5.90;93.40;;;;;;5090339;28;20280;-74
2021/12/15 05:03:15;;;;;;;31.10;15.13;;;5.90;92.80;;;;;;5089826;28;20246;-74
2021/12/15 05:05:42;;;;;;;27.17;15.27;;;5.90;93.10;;;;;;5092363;28;20244;-74
2021/12/15 05:08:11;;;;;;;28.73;14.88;;;5.90;93.20;;;;;;5094206;28;20317;-74
2021/12/15 05:10:39;;;;;;;26.55;12.93;;;5.90;93.40;;;;;;5094689;28;20208;-74
2021/12/15 05:13:10;;;;;;;30.55;14.75;;;5.90;93.30;;;;;;5094790;28;20598;-75
2021/12/15 05:15:42;;;;;;;33.05;13.52;;;5.80;93.70;;;;;;5094910;28;20197;-74
2021/12/15 05:18:10;;;;;;;27.65;13.15;;;5.80;93.40;;;;;;5094015;28;20216;-75
2021/12/15 05:20:40;;;;;;;29.85;13.95;;;5.90;93.10;;;;;;5094590;28;20291;-74
2021/12/15 05:23:08;;;;;;;33.28;13.98;;;5.80;93.30;;;;;;5094668;28;20225;-75
2021/12/15 05:25:36;;;;;;;22.67;10.65;;;5.90;93.40;;;;;;5094557;28;20209;-73
2021/12/15 05:28:04;;;;;;;37.90;15.05;;;5.90;93.50;;;;;;5094067;28;20320;-75
2021/12/15 05:30:34;;;;;;;30.27;15.75;;;5.90;93.40;;;;;;5094733;28;20276;-74
2021/12/15 05:33:02;;;;;;;30.63;14.13;;;5.90;93.80;;;;;;5094035;28;20197;-75
2021/12/15 05:35:29;;;;;;;31.98;13.70;;;5.90;93.40;;;;;;5094464;28;20660;-74
2021/12/15 05:38:00;;;;;;;26.83;13.77;;;5.90;93.50;;;;;;5094101;28;20197;-75
2021/12/15 05:40:29;;;;;;;34.85;17.27;;;5.90;93.40;;;;;;5094142;28;20194;-74
2021/12/15 05:42:57;;;;;;;27.40;14.23;;;5.90;93.40;;;;;;5092216;28;20231;-74
2021/12/15 05:45:25;;;;;;;27.95;14.25;;;6.00;93.40;;;;;;5091515;28;20215;-74
2021/12/15 05:47:55;;;;;;;28.20;13.82;;;5.90;93.20;;;;;;5093412;28;20209;-72
2021/12/15 05:50:23;;;;;;;26.90;12.55;;;6.00;93.40;;;;;;5094416;28;20200;-75
2021/12/15 05:52:51;;;;;;;28.52;13.40;;;5.90;93.30;;;;;;5092468;28;20224;-74
2021/12/15 05:55:19;;;;;;;33.60;16.35;;;5.90;93.20;;;;;;5092608;28;20229;-73
2021/12/15 05:57:49;;;;;;;29.27;13.82;;;5.80;93.30;;;;;;5093047;28;20196;-75
2021/12/15 06:00:22;;;;;;;32.42;16.67;;;5.90;93.50;;;;;;5090128;28;20289;-74
2021/12/15 06:02:50;;;;;;;27.67;16.02;;;5.90;93.60;;;;;;5091244;28;20189;-72
2021/12/15 06:05:19;;;;;;;27.27;12.68;;;5.90;93.50;;;;;;5092238;28;20305;-74
2021/12/15 06:07:47;;;;;;;23.98;12.55;;;5.90;93.40;;;;;;5091615;28;20262;-74
2021/12/15 06:10:21;;;;;;;22.30;12.70;;;5.90;93.10;;;;;;5092488;28;20201;-74
2021/12/15 06:12:50;;;;;;;23.30;11.63;;;5.90;93.20;;;;;;5091681;28;20618;-75
2021/12/15 06:15:22;;;;;;;17.17;10.90;;;5.90;93.10;;;;;;5091222;28;20201;-75
2021/12/15 06:17:50;;;;;;;16.05;9.35;;;5.90;92.90;;;;;;5090030;28;20190;-74
2021/12/15 06:20:21;;;;;;;19.02;11.38;;;5.90;93.00;;;;;;5091798;28;20198;-74
2021/12/15 06:22:52;;;;;;;18.73;11.07;;;5.90;93.10;;;;;;5091563;28;20236;-74
2021/12/15 06:25:20;;;;;;;19.50;13.25;;;5.90;92.70;;;;;;5091612;28;20197;-73
2021/12/15 06:27:47;;;;;;;20.52;11.82;;;5.90;92.70;;;;;;5091137;28;20233;-75
2021/12/15 06:30:14;;;;;;;18.60;10.88;;;5.80;92.50;;;;;;5092048;28;20212;-74
2021/12/15 06:32:42;;;;;;;19.60;11.18;;;5.80;92.80;;;;;;5091585;28;20197;-74
2021/12/15 06:35:14;;;;;;;21.38;10.90;;;5.70;93.00;;;;;;5091880;28;20201;-75
2021/12/15 06:37:43;;;;;;;18.52;10.95;;;5.70;93.20;;;;;;5091131;28;20201;-74
2021/12/15 06:40:12;;;;;;;23.00;10.63;;;5.70;93.10;;;;;;5091945;28;20256;-74
2021/12/15 06:42:41;;;;;;;18.75;9.38;;;5.70;93.20;;;;;;5091383;28;20194;-74
2021/12/15 06:45:17;;;;;;;21.90;10.95;;;5.70;93.50;;;;;;5091709;28;20194;-74
2021/12/15 06:58:44;;;;;;;17.58;9.95;;;5.80;93.20;;;;;;5090663;28;20758;-74
2021/12/15 07:01:16;;;;;;;17.23;10.70;;;5.80;93.00;;;;;;5091024;28;20239;-74
2021/12/15 07:03:43;;;;;;;16.73;9.57;;;5.80;93.30;;;;;;5091291;28;20194;-75
2021/12/15 07:06:11;;;;;;;16.33;9.20;;;5.80;93.50;;;;;;5090941;28;20705;-74
2021/12/15 07:08:40;;;;;;;16.52;9.00;;;5.80;93.30;;;;;;5087744;28;20256;-74
2021/12/15 07:11:08;;;;;;;15.45;9.57;;;5.80;92.90;;;;;;5090855;28;20599;-73
2021/12/15 07:13:37;;;;;;;14.75;9.10;;;5.80;93.00;;;;;;5090963;28;20244;-74
2021/12/15 07:16:08;;;;;;;15.43;8.15;;;5.80;93.00;;;;;;5090095;28;20204;-74
2021/12/15 07:18:47;;;;;;;15.80;8.77;;;5.70;93.10;;;;;;5090003;28;20208;-74
2021/12/15 07:21:20;;;;;;;10.40;6.03;;;5.80;92.90;;;;;;5090724;28;20193;-74
2021/12/15 07:23:50;;;;;;;15.82;6.72;;;5.70;92.90;;;;;;5091236;28;20209;-74
2021/12/15 07:26:18;;;;;;;14.98;8.38;;;5.70;92.80;;;;;;5090243;28;20308;-75
2021/12/15 07:28:45;;;;;;;12.07;7.20;;;5.80;92.80;;;;;;5091356;28;20666;-74
2021/12/15 07:31:13;;;;;;;13.65;7.65;;;5.80;92.70;;;;;;5089078;28;20190;-74
2021/12/15 07:33:41;;;;;;;13.45;6.30;;;5.80;92.60;;;;;;5089437;28;20250;-75
2021/12/15 07:36:08;;;;;;;14.10;7.22;;;5.80;92.40;;;;;;5089248;28;20221;-76
2021/12/15 07:38:41;;;;;;;13.98;7.72;;;5.70;92.60;;;;;;5087314;28;20280;-74
2021/12/15 07:41:20;;;;;;;10.60;6.88;;;5.70;92.90;;;;;;5091257;28;20177;-73
2021/12/15 07:43:48;;;;;;;11.32;6.15;;;5.70;92.80;;;;;;5090072;28;20189;-74
2021/12/15 07:46:14;;;;;;;11.27;6.45;;;5.70;92.80;;;;;;5091208;28;20189;-75
2021/12/15 07:48:41;;;;;;;10.20;5.50;;;5.70;92.80;;;;;;5091025;28;20311;-74
2021/12/15 07:51:13;;;;;;;14.23;6.30;;;5.70;92.80;;;;;;5090793;28;20189;-75
2021/12/15 07:53:42;;;;;;;14.88;7.32;;;5.80;92.90;;;;;;5091629;28;20230;-75
2021/12/15 07:56:12;;;;;;;12.20;7.55;;;5.80;92.80;;;;;;5091579;28;20190;-74
2021/12/15 07:58:39;;;;;;;14.38;6.35;;;5.80;93.00;;;;;;5091506;28;20196;-75
2021/12/15 08:01:11;;;;;;;11.13;5.80;;;5.80;92.80;;;;;;5091243;28;20190;-75
2021/12/15 08:03:41;;;;;;;9.75;6.15;;;5.80;92.40;;;;;;5090529;28;20181;-75
2021/12/15 08:06:09;;;;;;;11.93;6.95;;;5.80;92.80;;;;;;5090521;28;20189;-75
2021/12/15 08:08:36;;;;;;;13.45;7.50;;;5.80;92.80;;;;;;5089560;28;20217;-75
2021/12/15 08:11:05;;;;;;;12.60;7.00;;;5.90;92.80;;;;;;5089019;28;20204;-75
2021/12/15 08:13:36;;;;;;;13.50;8.13;;;5.90;92.60;;;;;;5091067;28;20608;-74
2021/12/15 08:16:04;;;;;;;13.68;8.75;;;5.90;92.60;;;;;;5086988;28;20189;-75
2021/12/15 08:18:31;;;;;;;13.82;7.55;;;5.90;92.40;;;;;;5090960;28;20198;-76
2021/12/15 08:21:00;;;;;;;16.40;8.13;;;5.90;92.80;;;;;;5090812;28;20185;-74
2021/12/15 08:23:28;;;;;;;14.75;9.00;;;5.90;93.00;;;;;;5090722;28;20192;-75
2021/12/15 08:26:00;;;;;;;13.60;8.32;;;5.90;92.80;;;;;;5091282;28;20296;-74
2021/12/15 08:28:28;;;;;;;14.85;8.15;;;6.00;93.00;;;;;;5090624;28;20217;-74
2021/12/15 08:30:59;;;;;;;13.95;7.10;;;6.00;92.30;;;;;;5090465;28;20193;-75
2021/12/15 08:33:28;;;;;;;10.40;6.45;;;6.00;92.40;;;;;;5090750;28;20217;-75
2021/12/15 08:35:58;;;;;;;17.15;9.00;;;6.00;92.70;;;;;;5090574;28;20193;-74
2021/12/15 08:38:27;;;;;;;13.95;8.27;;;6.00;92.80;;;;;;5091555;28;20201;-75
2021/12/15 08:40:54;;;;;;;12.93;7.55;;;6.00;92.70;;;;;;5095198;28;20196;-76
2021/12/15 08:43:27;;;;;;;14.55;8.30;;;6.10;92.80;;;;;;5094832;28;20203;-73
2021/12/15 08:45:58;;;;;;;15.00;7.50;;;6.10;92.60;;;;;;5094457;28;20209;-75
2021/12/15 08:48:26;;;;;;;16.70;8.68;;;6.10;92.50;;;;;;5094698;28;20573;-75
2021/12/15 08:50:54;;;;;;;13.07;7.95;;;6.10;92.60;;;;;;5094918;28;20235;-74
2021/12/15 08:53:24;;;;;;;11.65;7.07;;;6.20;92.60;;;;;;5094236;28;20190;-73
2021/12/15 08:55:52;;;;;;;11.80;7.20;;;6.20;92.50;;;;;;5094930;28;20185;-75
2021/12/15 08:58:23;;;;;;;16.88;8.23;;;6.20;92.40;;;;;;5091924;28;20228;-74
2021/12/15 09:00:53;;;;;;;11.95;6.75;;;6.30;92.30;;;;;;5094052;28;20229;-73
2021/12/15 09:03:22;;;;;;;21.58;7.82;;;6.30;92.00;;;;;;5094835;28;20220;-75
2021/12/15 09:05:52;;;;;;;13.90;6.40;;;6.30;92.10;;;;;;5094510;28;20633;-74
2021/12/15 09:08:20;;;;;;;8.40;4.53;;;6.30;91.70;;;;;;5094312;28;20214;-73
2021/12/15 09:10:48;;;;;;;6.55;4.47;;;6.30;91.80;;;;;;5094575;28;20189;-75
2021/12/15 09:13:16;;;;;;;5.53;3.05;;;6.20;91.80;;;;;;5094455;28;20212;-75
2021/12/15 09:15:43;;;;;;;6.22;3.42;;;6.20;91.60;;;;;;5093946;28;20189;-75
2021/12/15 09:18:14;;;;;;;4.80;3.13;;;6.10;91.40;;;;;;5093892;28;20223;-75
2021/12/15 09:20:44;;;;;;;5.85;3.08;;;6.10;91.60;;;;;;5094259;28;20269;-75
2021/12/15 09:23:14;;;;;;;5.68;3.83;;;6.10;91.50;;;;;;5089585;28;20189;-75
2021/12/15 09:25:42;;;;;;;9.30;4.80;;;6.10;91.70;;;;;;5089799;28;20655;-74
2021/12/15 09:28:10;;;;;;;7.97;5.28;;;6.20;91.30;;;;;;5094311;28;20213;-74
2021/12/15 09:30:43;;;;;;;21.27;12.02;;;6.10;91.40;;;;;;5094119;28;20247;-74
2021/12/15 09:33:19;;;;;;;12.50;7.50;;;6.20;91.90;;;;;;5090495;28;20182;-75
2021/12/15 09:35:48;;;;;;;15.25;9.23;;;6.20;92.10;;;;;;5093898;28;20282;-75
2021/12/15 09:38:16;;;;;;;6.60;4.28;;;6.20;92.30;;;;;;5094316;28;20205;-74
2021/12/15 09:40:47;;;;;;;4.40;2.80;;;6.30;91.90;;;;;;5094120;28;20197;-74
2021/12/15 09:43:15;;;;;;;4.70;3.20;;;6.30;91.20;;;;;;5094023;28;20686;-75
2021/12/15 09:45:52;;;;;;;5.22;3.30;;;6.30;91.20;;;;;;5091390;28;20189;-75
2021/12/15 10:02:36;;;;;;;7.60;5.20;;;6.30;91.50;;;;;;5092987;28;20204;-75
2021/12/15 10:05:15;;;;;;;10.90;6.53;;;6.40;91.60;;;;;;5093114;28;20187;-74
2021/12/15 10:10:49;;;;;;;4.95;3.97;;;6.30;91.60;;;;;;5093001;28;20220;-74
2021/12/15 10:18:56;;;;;;;6.70;4.10;;;6.40;91.50;;;;;;5092941;28;20204;-75
2021/12/15 10:21:27;;;;;;;5.72;4.10;;;6.50;91.60;;;;;;5093428;28;20194;-74
2021/12/15 10:23:57;;;;;;;5.07;3.25;;;6.60;91.70;;;;;;5092531;28;20250;-74
2021/12/15 10:26:26;;;;;;;4.65;2.95;;;6.60;91.50;;;;;;5092352;28;20220;-74
2021/12/15 10:28:54;;;;;;;4.80;2.90;;;6.60;91.30;;;;;;5091719;28;20227;-74
2021/12/15 10:31:23;;;;;;;5.13;2.72;;;6.70;90.50;;;;;;5092652;28;20185;-74
2021/12/15 10:33:54;;;;;;;4.22;2.55;;;6.60;90.30;;;;;;5088224;28;20185;-73
2021/12/15 10:36:24;;;;;;;4.88;3.17;;;6.60;90.30;;;;;;5092291;28;20185;-74
2021/12/15 10:38:53;;;;;;;6.93;3.25;;;6.50;90.60;;;;;;5092409;28;20185;-74
2021/12/15 10:41:25;;;;;;;4.60;3.35;;;6.60;90.60;;;;;;5092433;28;20641;-74
2021/12/15 10:43:55;;;;;;;4.43;3.20;;;6.60;90.60;;;;;;5092854;28;20306;-73
2021/12/15 10:46:25;;;;;;;5.53;3.17;;;6.60;90.90;;;;;;5092285;28;20232;-73
2021/12/15 10:48:55;;;;;;;4.75;2.72;;;6.60;91.00;;;;;;5092828;28;20256;-74
2021/12/15 10:51:28;;;;;;;4.15;2.95;;;6.70;90.80;;;;;;5092718;28;20292;-74
2021/12/15 10:54:03;;;;;;;5.15;3.40;;;6.60;90.30;;;;;;5092503;28;20189;-74
2021/12/15 10:56:35;;;;;;;8.10;4.40;;;6.50;90.70;;;;;;5092647;28;20285;-74
2021/12/15 10:59:06;;;;;;;4.65;2.80;;;6.50;91.10;;;;;;5092270;28;20186;-74
2021/12/15 11:01:48;;;;;;;6.43;2.90;;;6.60;91.00;;;;;;5088092;28;20197;-76
2021/12/15 11:04:41;;;;;;;3.80;2.55;;;6.60;91.00;;;;;;5092356;28;20225;-74
2021/12/15 11:07:21;;;;;;;8.88;3.17;;;6.60;90.60;;;;;;5092014;28;20224;-74
2021/12/15 11:09:55;;;;;;;5.68;3.80;;;6.60;90.60;;;;;;5092671;28;20643;-76
2021/12/15 11:12:26;;;;;;;6.55;3.53;;;6.70;90.50;;;;;;5091933;28;20233;-73
2021/12/15 11:14:56;;;;;;;4.80;3.15;;;6.60;90.60;;;;;;5092521;28;20233;-74
2021/12/15 11:17:26;;;;;;;7.47;3.10;;;6.60;90.80;;;;;;5092495;28;20196;-73
2021/12/15 11:19:57;;;;;;;5.40;2.90;;;6.60;90.90;;;;;;5087842;28;20227;-73
2021/12/15 11:22:39;;;;;;;4.90;3.30;;;6.70;90.80;;;;;;5092472;28;20229;-75
2021/12/15 11:25:11;;;;;;;5.28;3.40;;;6.70;90.80;;;;;;5088010;28;20587;-75
2021/12/15 11:27:40;;;;;;;5.30;3.25;;;6.70;91.00;;;;;;5091786;28;20274;-74
2021/12/15 11:30:11;;;;;;;4.72;3.25;;;6.80;90.50;;;;;;5090816;28;20312;-73
2021/12/15 11:32:46;;;;;;;6.40;3.80;;;6.80;90.10;;;;;;5088597;28;20280;-75
2021/12/15 11:35:19;;;;;;;5.38;3.65;;;6.70;90.40;;;;;;5091763;28;20276;-75
2021/12/15 11:37:50;;;;;;;6.07;3.72;;;6.60;91.10;;;;;;5087792;28;20201;-74
2021/12/15 11:40:23;;;;;;;5.60;3.67;;;6.70;90.70;;;;;;5091585;28;20277;-75
2021/12/15 11:42:52;;;;;;;5.88;3.15;;;6.70;90.90;;;;;;5091680;28;20192;-74
2021/12/15 11:45:19;;;;;;;4.32;3.60;;;6.80;90.80;;;;;;5091628;28;20272;-74
2021/12/15 11:47:47;;;;;;;4.75;2.90;;;6.70;90.50;;;;;;5091892;28;20197;-74
2021/12/15 11:50:17;;;;;;;4.72;3.10;;;6.80;90.60;;;;;;5091368;28;20712;-74
2021/12/15 11:52:47;;;;;;;5.35;3.50;;;6.80;90.50;;;;;;5087476;28;20281;-74
2021/12/15 11:55:26;;;;;;;5.45;3.70;;;6.70;90.50;;;;;;5091315;28;20197;-75
2021/12/15 11:57:55;;;;;;;6.88;3.28;;;6.70;90.60;;;;;;5087056;28;20220;-74
2021/12/15 12:00:26;;;;;;;5.88;3.67;;;6.70;90.60;;;;;;5090989;28;20189;-74
2021/12/15 12:02:56;;;;;;;4.65;3.63;;;6.80;90.80;;;;;;5091377;28;20228;-73
2021/12/15 12:05:25;;;;;;;5.93;3.75;;;6.80;90.80;;;;;;5088738;28;20276;-73
2021/12/15 12:07:57;;;;;;;6.32;3.67;;;6.80;90.70;;;;;;5090505;28;20255;-74
2021/12/15 12:10:29;;;;;;;5.43;3.60;;;6.80;90.60;;;;;;5091547;28;20614;-74
2021/12/15 12:13:05;;;;;;;7.90;4.00;;;6.80;90.70;;;;;;5086964;28;20186;-74
2021/12/15 12:15:34;;;;;;;4.50;3.40;;;6.90;90.90;;;;;;5091121;28;20213;-74
2021/12/15 12:18:05;;;;;;;4.88;3.50;;;6.90;90.50;;;;;;5090140;28;20277;-75
2021/12/15 12:20:35;;;;;;;5.72;3.92;;;6.90;90.60;;;;;;5090877;28;20194;-74
2021/12/15 12:23:05;;;;;;;6.57;4.32;;;6.90;90.10;;;;;;5091124;28;20276;-74
2021/12/15 12:25:36;;;;;;;5.85;3.63;;;6.90;90.10;;;;;;5090171;28;20644;-75
2021/12/15 12:28:19;;;;;;;6.93;3.58;;;6.90;90.60;;;;;;5089979;28;20221;-74
2021/12/15 12:30:51;;;;;;;6.50;4.85;;;6.90;90.60;;;;;;5086282;28;20304;-74
2021/12/15 12:33:20;;;;;;;6.05;4.22;;;6.90;90.10;;;;;;5091422;28;20281;-75
2021/12/15 12:35:50;;;;;;;5.30;3.72;;;6.90;90.30;;;;;;5089239;28;20709;-73
2021/12/15 12:38:20;;;;;;;6.53;4.55;;;6.80;90.20;;;;;;5086283;28;20192;-74
2021/12/15 12:40:52;;;;;;;4.95;4.20;;;6.80;90.30;;;;;;5090284;28;20656;-74
2021/12/15 12:43:27;;;;;;;5.28;3.80;;;6.80;90.50;;;;;;5088556;28;20605;-73
2021/12/15 12:45:58;;;;;;;6.68;4.68;;;6.80;90.40;;;;;;5085785;28;20215;-74
2021/12/15 12:48:45;;;;;;;7.43;4.32;;;6.80;90.30;;;;;;5090165;28;20198;-74
2021/12/15 13:00:08;;;;;;;6.05;4.30;;;6.50;90.90;;;;;;5087993;28;20193;-74
2021/12/15 13:02:43;;;;;;;7.50;4.60;;;6.50;91.30;;;;;;5089997;28;20256;-75
2021/12/15 13:05:30;;;;;;;6.55;4.30;;;6.50;90.90;;;;;;5089876;28;20554;-74
2021/12/15 13:07:59;;;;;;;7.18;4.47;;;6.50;90.70;;;;;;5090496;28;20527;-74
2021/12/15 13:10:56;;;;;;;9.77;4.45;;;6.50;90.60;;;;;;5089586;28;20286;-74
2021/12/15 13:13:26;;;;;;;7.85;4.72;;;6.40;91.00;;;;;;5089623;28;20591;-74
2021/12/15 13:15:59;;;;;;;6.13;4.38;;;6.40;91.20;;;;;;5089710;28;20221;-74
2021/12/15 13:18:28;;;;;;;8.30;4.72;;;6.40;91.10;;;;;;5090541;28;20231;-73
2021/12/15 13:20:59;;;;;;;8.15;4.75;;;6.40;91.20;;;;;;5089535;28;20199;-75
2021/12/15 13:23:41;;;;;;;8.60;4.15;;;6.40;91.20;;;;;;5090393;28;20238;-74
2021/12/15 13:29:13;;;;;;;6.97;5.50;;;6.50;90.70;;;;;;5094266;28;20196;-74
2021/12/15 13:31:53;;;;;;;8.77;4.95;;;6.40;90.90;;;;;;5091823;28;20193;-74
2021/12/15 13:34:36;;;;;;;5.50;4.00;;;6.40;91.20;;;;;;5091259;28;20186;-74
2021/12/15 13:37:03;;;;;;;5.93;4.00;;;6.40;91.20;;;;;;5093834;28;20544;-74
2021/12/15 13:39:44;;;;;;;7.57;4.90;;;6.30;91.10;;;;;;5092937;28;20186;-75
2021/12/15 13:42:14;;;;;;;6.38;4.22;;;6.40;91.40;;;;;;5093314;28;20190;-74
2021/12/15 13:44:44;;;;;;;7.50;4.75;;;6.30;91.40;;;;;;5089275;28;20550;-74
2021/12/15 13:47:19;;;;;;;7.13;4.80;;;6.40;91.00;;;;;;5093608;28;20193;-75
2021/12/15 13:49:49;;;;;;;7.70;4.32;;;6.40;91.00;;;;;;5092927;28;20300;-74
2021/12/15 13:52:29;;;;;;;6.55;3.83;;;6.40;91.00;;;;;;5093757;28;20594;-75
2021/12/15 13:55:27;;;;;;;6.07;4.15;;;6.40;90.90;;;;;;5092617;28;20213;-73
2021/12/15 13:57:59;;;;;;;5.85;3.80;;;6.30;91.10;;;;;;5092967;28;20189;-75
2021/12/15 14:00:33;;;;;;;6.95;5.40;;;6.30;91.20;;;;;;5092523;28;21412;-75
2021/12/15 14:03:23;;;;;;;7.30;4.70;;;6.20;91.20;;;;;;5092699;28;20280;-73
2021/12/15 14:05:54;;;;;;;6.90;3.92;;;6.20;91.40;;;;;;5093127;28;20292;-73
2021/12/15 14:08:27;;;;;;;5.90;4.00;;;6.30;91.40;;;;;;5089703;28;20196;-73
2021/12/15 14:11:19;;;;;;;8.75;4.68;;;6.30;91.30;;;;;;5092812;28;20213;-75
2021/12/15 14:13:52;;;;;;;7.85;5.53;;;6.30;91.00;;;;;;5088554;28;20193;-74